Time;durP1;ratioP1;P1;durP2;ratioP2;P2;SDS_P1;SDS_P2;PMS_P1;PMS_P2;Temp;Humidity;BMP_temperature;BMP_pressure;BME280_temperature;BME280_humidity;BME280_pressure;Samples;Min_cycle;Max_cycle;Signal;HPM_P1;HPM_P2
2022/07/19 00:01:46;;;;;;;4.75;2.47;;;;;;;32.58;28.57;100814.50;5069421;28;20389;-46
2022/07/19 00:04:15;;;;;;;7.80;2.97;;;;;;;32.36;29.08;100830.97;5067333;28;20028;-43
2022/07/19 00:06:43;;;;;;;6.30;2.45;;;;;;;32.37;29.03;100853.09;5079223;28;20173;-51
2022/07/19 00:09:12;;;;;;;6.25;2.95;;;;;;;32.30;29.05;100841.75;5078937;28;20039;-44
2022/07/19 00:11:40;;;;;;;3.47;2.53;;;;;;;32.18;29.74;100842.03;5071289;28;20035;-43
2022/07/19 00:14:09;;;;;;;6.32;2.28;;;;;;;32.33;29.53;100840.81;5072458;28;20366;-47
2022/07/19 00:16:37;;;;;;;4.45;2.40;;;;;;;32.33;29.47;100815.16;5073712;28;20025;-49
2022/07/19 00:19:06;;;;;;;6.03;2.45;;;;;;;32.17;29.92;100804.00;5073554;28;20054;-45
2022/07/19 00:21:35;;;;;;;4.75;2.50;;;;;;;32.19;30.27;100798.63;5073662;28;20028;-43
2022/07/19 00:24:04;;;;;;;2.92;2.20;;;;;;;32.14;30.10;100793.44;5071496;28;20122;-46
2022/07/19 00:26:33;;;;;;;5.03;2.67;;;;;;;32.18;30.00;100802.22;5071357;28;20048;-43
2022/07/19 00:29:03;;;;;;;6.65;2.90;;;;;;;32.17;29.97;100816.41;5065731;28;20037;-43
2022/07/19 00:31:31;;;;;;;5.75;2.42;;;;;;;32.33;29.86;100836.38;5073291;28;20028;-51
2022/07/19 00:34:00;;;;;;;3.30;2.58;;;;;;;32.30;30.30;100831.16;5070403;28;20031;-44
2022/07/19 00:36:28;;;;;;;5.78;2.00;;;;;;;32.09;30.36;100832.50;5073970;28;20107;-45
2022/07/19 00:38:57;;;;;;;7.47;2.60;;;;;;;32.08;30.27;100834.28;5075776;28;20174;-48
2022/07/19 00:41:26;;;;;;;3.33;2.42;;;;;;;32.09;30.26;100832.50;5073922;28;20039;-51
2022/07/19 00:43:54;;;;;;;5.85;2.47;;;;;;;31.73;31.20;100830.66;5074181;28;20052;-51
2022/07/19 00:46:24;;;;;;;6.70;2.70;;;;;;;31.42;32.37;100841.88;5071460;28;20115;-44
2022/07/19 00:48:52;;;;;;;12.88;2.65;;;;;;;31.09;33.92;100823.06;5078976;28;20042;-43
2022/07/19 00:51:21;;;;;;;6.15;3.33;;;;;;;30.92;34.67;100842.81;5070265;28;20650;-45
2022/07/19 00:53:52;;;;;;;9.40;4.03;;;;;;;30.90;35.36;100844.59;5073014;28;20112;-47
2022/07/19 00:56:21;;;;;;;9.32;4.28;;;;;;;30.76;35.76;100844.00;5071442;28;20450;-43
2022/07/19 00:58:50;;;;;;;11.23;5.63;;;;;;;30.60;36.85;100833.66;5070019;28;20024;-43
2022/07/19 01:01:20;;;;;;;17.60;6.13;;;;;;;30.52;37.08;100830.25;5049020;28;20028;-50
2022/07/19 01:03:49;;;;;;;13.68;6.35;;;;;;;30.47;36.79;100805.63;5072847;28;20036;-50
2022/07/19 01:06:18;;;;;;;10.35;6.63;;;;;;;30.67;37.23;100796.50;5073121;28;20028;-50
2022/07/19 01:08:46;;;;;;;12.50;6.53;;;;;;;30.82;36.45;100782.09;5073715;28;20036;-43
2022/07/19 01:11:15;;;;;;;12.50;6.32;;;;;;;30.79;36.55;100777.75;5071773;28;20029;-47
2022/07/19 01:13:43;;;;;;;11.45;6.97;;;;;;;30.71;37.11;100774.34;5057446;28;20074;-49
2022/07/19 01:16:12;;;;;;;15.60;7.40;;;;;;;30.75;36.72;100761.03;5067200;28;20115;-51
2022/07/19 01:18:41;;;;;;;13.48;7.00;;;;;;;30.58;37.10;100740.16;5065915;28;20172;-50
2022/07/19 01:21:15;;;;;;;14.55;7.60;;;;;;;30.55;37.27;100742.88;5070935;28;20032;-43
2022/07/19 01:23:43;;;;;;;10.98;6.57;;;;;;;30.83;36.57;100752.94;5063900;28;20028;-49
2022/07/19 01:26:12;;;;;;;10.90;6.90;;;;;;;30.90;35.87;100761.66;5072838;28;20124;-43
2022/07/19 01:28:40;;;;;;;12.48;6.97;;;;;;;30.77;35.98;100732.75;5071210;28;20466;-45
2022/07/19 01:31:09;;;;;;;13.27;7.68;;;;;;;30.83;36.17;100715.88;5072709;28;20040;-50
2022/07/19 01:33:41;;;;;;;12.65;7.38;;;;;;;30.93;36.37;100721.88;5050169;28;20616;-43
2022/07/19 01:36:10;;;;;;;13.00;7.53;;;;;;;30.96;36.30;100719.13;5068176;28;20103;-48
2022/07/19 01:38:39;;;;;;;19.83;7.53;;;;;;;30.84;36.50;100692.91;5066765;28;20493;-52
2022/07/19 01:41:08;;;;;;;16.40;7.28;;;;;;;30.80;36.27;100670.03;5075216;28;20055;-43
2022/07/19 01:43:37;;;;;;;11.82;7.18;;;;;;;30.94;36.46;100680.34;5074844;28;20039;-43
2022/07/19 01:46:06;;;;;;;13.52;7.63;;;;;;;30.84;36.37;100656.72;5070330;28;20062;-45
2022/07/19 01:48:35;;;;;;;11.82;7.28;;;;;;;30.90;36.23;100647.75;5070965;28;20028;-43
2022/07/19 01:51:03;;;;;;;18.63;7.22;;;;;;;30.88;36.47;100628.38;5070819;28;20486;-44
2022/07/19 01:53:32;;;;;;;10.15;6.38;;;;;;;30.91;36.70;100630.97;5068771;28;20043;-43
2022/07/19 01:56:01;;;;;;;14.30;7.47;;;;;;;30.90;36.63;100610.69;5071942;28;20086;-49
2022/07/19 01:58:29;;;;;;;12.02;7.32;;;;;;;30.94;36.61;100612.38;5067991;28;20430;-46
2022/07/19 02:00:58;;;;;;;10.55;7.13;;;;;;;30.92;36.38;100598.28;5074257;28;20474;-44
2022/07/19 02:03:26;;;;;;;10.90;6.55;;;;;;;30.91;36.37;100599.19;5071642;28;20588;-47
2022/07/19 02:05:55;;;;;;;12.60;6.30;;;;;;;30.94;36.02;100580.59;5067775;28;20115;-43
2022/07/19 02:08:24;;;;;;;7.55;5.30;;;;;;;30.93;36.17;100573.53;5068339;28;20128;-44
2022/07/19 02:10:53;;;;;;;11.13;5.80;;;;;;;30.97;35.91;100561.94;5070461;28;20036;-46
2022/07/19 02:13:21;;;;;;;8.85;5.43;;;;;;;30.95;35.56;100542.56;5070569;28;20098;-47
2022/07/19 02:15:49;;;;;;;5.65;4.22;;;;;;;31.00;35.31;100527.44;5075310;28;20028;-43
2022/07/19 02:18:18;;;;;;;6.60;4.70;;;;;;;30.83;35.38;100503.13;5074959;28;20472;-44
2022/07/19 02:20:46;;;;;;;9.32;5.18;;;;;;;30.79;35.26;100485.56;5074711;28;20047;-51
2022/07/19 02:23:15;;;;;;;10.65;4.60;;;;;;;30.75;35.29;100493.63;5075104;28;20735;-47
2022/07/19 02:25:44;;;;;;;11.88;3.45;;;;;;;30.67;35.26;100490.25;5075901;28;20055;-46
2022/07/19 02:28:12;;;;;;;11.60;3.50;;;;;;;30.66;35.00;100485.00;5071189;28;20055;-49
2022/07/19 02:30:41;;;;;;;4.45;3.25;;;;;;;30.64;35.09;100487.66;5069600;28;20374;-47
2022/07/19 02:33:10;;;;;;;10.15;3.85;;;;;;;30.58;35.01;100482.53;5076141;28;20035;-44
2022/07/19 02:35:38;;;;;;;6.10;3.22;;;;;;;30.65;34.51;100476.19;5072339;28;20036;-43
2022/07/19 02:38:07;;;;;;;5.70;2.78;;;;;;;30.65;34.23;100464.72;5069008;28;20060;-52
2022/07/19 02:40:35;;;;;;;4.78;2.97;;;;;;;30.64;33.87;100461.19;5070596;28;20035;-45
2022/07/19 02:43:04;;;;;;;6.10;2.95;;;;;;;30.55;34.13;100451.69;5070018;28;20028;-43
2022/07/19 02:45:32;;;;;;;5.57;3.03;;;;;;;30.47;33.93;100441.25;5076611;28;20024;-44
2022/07/19 02:48:02;;;;;;;8.60;3.40;;;;;;;30.55;34.28;100438.47;5070694;28;20181;-46
2022/07/19 02:50:31;;;;;;;8.38;2.53;;;;;;;30.45;34.06;100429.81;5070742;28;20039;-44
2022/07/19 02:53:00;;;;;;;8.18;2.70;;;;;;;30.45;34.07;100437.75;5076316;28;20039;-49
2022/07/19 02:55:28;;;;;;;11.05;3.00;;;;;;;30.45;33.92;100443.06;5069817;28;20033;-43
2022/07/19 02:57:57;;;;;;;9.60;3.30;;;;;;;30.46;33.91;100452.75;5069624;28;20375;-46
2022/07/19 03:00:25;;;;;;;4.75;2.72;;;;;;;30.45;33.91;100461.59;5071060;28;20032;-46
2022/07/19 03:02:54;;;;;;;4.10;2.50;;;;;;;30.57;33.49;100494.88;5063466;28;20033;-44
2022/07/19 03:05:23;;;;;;;6.88;2.80;;;;;;;30.16;33.86;100634.19;5070114;28;20031;-45
2022/07/19 03:07:52;;;;;;;6.95;3.33;;;;;;;29.65;35.81;100640.31;5069703;28;20028;-46
2022/07/19 03:10:20;;;;;;;11.30;3.33;;;;;;;29.93;34.92;100602.84;5070199;28;20024;-51
2022/07/19 03:12:49;;;;;;;7.45;4.18;;;;;;;29.68;35.67;100624.41;5069532;28;20054;-46
2022/07/19 03:15:17;;;;;;;11.68;5.15;;;;;;;29.64;36.44;100712.56;5069772;28;20031;-46
2022/07/19 03:17:46;;;;;;;15.88;7.38;;;;;;;29.11;39.00;100706.22;5064294;28;20117;-46
2022/07/19 03:20:15;;;;;;;15.25;6.57;;;;;;;29.09;39.23;100723.84;5070383;28;20032;-47
2022/07/19 03:22:43;;;;;;;14.50;8.15;;;;;;;28.95;39.88;100723.16;5070956;28;20056;-43
2022/07/19 03:25:12;;;;;;;13.25;7.18;;;;;;;29.12;39.39;100736.16;5069562;28;20029;-54
2022/07/19 03:27:40;;;;;;;18.92;7.80;;;;;;;28.94;40.55;100777.75;5070746;28;20262;-55
2022/07/19 03:30:09;;;;;;;15.70;8.38;;;;;;;28.92;40.63;100768.97;5073296;28;20031;-50
2022/07/19 03:32:37;;;;;;;11.93;8.18;;;;;;;29.05;40.46;100830.41;5068622;28;20024;-54
2022/07/19 03:35:06;;;;;;;15.63;9.50;;;;;;;28.26;43.48;100815.28;5079271;28;20454;-51
2022/07/19 03:37:35;;;;;;;12.32;8.70;;;;;;;28.01;44.25;100889.25;5073614;28;20373;-43
2022/07/19 03:40:04;;;;;;;14.05;8.68;;;;;;;27.46;45.55;100829.75;5072897;28;20317;-48
2022/07/19 03:42:32;;;;;;;11.52;8.43;;;;;;;27.44;45.30;100813.94;5073518;28;20057;-52
2022/07/19 03:45:01;;;;;;;13.45;8.60;;;;;;;27.64;44.50;100826.16;5075862;28;20032;-47
2022/07/19 03:47:29;;;;;;;13.65;9.20;;;;;;;27.73;44.30;100841.94;5078257;28;20048;-47
2022/07/19 03:49:58;;;;;;;14.10;9.05;;;;;;;27.60;45.07;100883.28;5075657;28;20032;-48
2022/07/19 03:52:27;;;;;;;12.15;7.97;;;;;;;27.78;44.33;100864.78;5073629;28;20427;-44
2022/07/19 03:54:55;;;;;;;9.45;6.38;;;;;;;27.71;44.62;100948.25;5075914;28;20090;-44
2022/07/19 03:57:24;;;;;;;13.55;6.95;;;;;;;27.69;44.36;100942.97;5068909;28;20165;-45
2022/07/19 03:59:52;;;;;;;9.75;6.60;;;;;;;27.58;44.99;100874.50;5072408;28;20114;-53
2022/07/19 04:02:21;;;;;;;8.93;6.35;;;;;;;27.29;45.71;100866.66;5072617;28;20030;-48
2022/07/19 04:04:49;;;;;;;12.32;6.35;;;;;;;26.82;46.96;100814.09;5072649;28;20028;-52
2022/07/19 04:07:18;;;;;;;11.25;6.10;;;;;;;26.96;46.37;100781.63;5076711;28;20033;-50
2022/07/19 04:09:46;;;;;;;10.50;6.55;;;;;;;27.15;45.78;100750.84;5072072;28;20206;-46
2022/07/19 04:12:15;;;;;;;9.63;5.63;;;;;;;27.36;45.25;100746.38;5069885;28;20130;-44
2022/07/19 04:14:44;;;;;;;10.45;5.80;;;;;;;27.25;45.58;100728.84;5076573;28;20390;-46
2022/07/19 04:17:12;;;;;;;13.50;6.20;;;;;;;27.06;45.88;100749.09;5077231;28;20048;-48
2022/07/19 04:19:41;;;;;;;10.13;5.70;;;;;;;27.20;45.38;100717.47;5077015;28;20027;-46
2022/07/19 04:22:10;;;;;;;11.32;6.00;;;;;;;27.19;45.42;100720.97;5069841;28;20461;-54
2022/07/19 04:24:38;;;;;;;17.45;6.90;;;;;;;27.39;44.85;100698.91;5069811;28;20469;-50
2022/07/19 04:27:07;;;;;;;13.77;6.78;;;;;;;27.39;44.85;100681.38;5072022;28;20084;-52
2022/07/19 04:29:35;;;;;;;10.40;6.15;;;;;;;27.58;44.21;100673.38;5072322;28;20028;-43
2022/07/19 04:32:04;;;;;;;9.00;5.75;;;;;;;27.60;43.92;100666.34;5077400;28;20297;-43
2022/07/19 04:34:33;;;;;;;11.07;5.85;;;;;;;27.78;43.29;100653.91;5077260;28;20127;-53
2022/07/19 04:37:02;;;;;;;7.45;5.45;;;;;;;27.98;42.65;100645.81;5072714;28;20032;-48
2022/07/19 04:39:30;;;;;;;10.25;5.03;;;;;;;28.26;41.95;100658.78;5076248;28;20057;-46
2022/07/19 04:41:59;;;;;;;6.78;5.78;;;;;;;28.33;41.91;100655.19;5077256;28;20035;-47
2022/07/19 04:44:27;;;;;;;7.43;4.97;;;;;;;28.45;41.45;100646.28;5070433;28;20067;-54
2022/07/19 04:46:56;;;;;;;7.00;4.50;;;;;;;28.58;41.24;100628.53;5073504;28;20032;-52
2022/07/19 04:49:25;;;;;;;8.75;5.80;;;;;;;28.59;40.99;100612.69;5071670;28;20031;-53
2022/07/19 04:51:53;;;;;;;8.02;4.95;;;;;;;28.65;40.77;100615.22;5075765;28;20034;-51
2022/07/19 04:54:22;;;;;;;10.02;5.43;;;;;;;28.72;40.62;100587.00;5066404;28;20400;-49
2022/07/19 04:56:50;;;;;;;11.68;5.50;;;;;;;28.63;40.67;100572.16;5071505;28;20090;-45
2022/07/19 04:59:18;;;;;;;12.75;5.20;;;;;;;28.75;40.38;100565.00;5075907;28;20119;-47
2022/07/19 05:01:46;;;;;;;9.00;4.82;;;;;;;28.81;39.92;100564.91;5077982;28;20627;-48
2022/07/19 05:04:16;;;;;;;7.93;5.10;;;;;;;28.72;40.44;100528.94;5077675;28;20089;-46
2022/07/19 05:06:44;;;;;;;9.50;4.60;;;;;;;28.73;40.21;100540.38;5078053;28;20118;-49
2022/07/19 05:09:12;;;;;;;8.82;5.22;;;;;;;28.70;40.38;100572.09;5069783;28;20024;-50
2022/07/19 05:11:41;;;;;;;8.85;5.03;;;;;;;28.72;40.45;100594.06;5071982;28;20448;-47
2022/07/19 05:14:09;;;;;;;6.70;4.93;;;;;;;28.85;39.86;100600.09;5071095;28;20028;-48
2022/07/19 05:16:38;;;;;;;7.88;5.40;;;;;;;28.91;39.75;100594.69;5065591;28;20089;-45
2022/07/19 05:19:06;;;;;;;7.68;5.55;;;;;;;28.95;39.80;100606.97;5072035;28;20121;-43
2022/07/19 05:21:35;;;;;;;8.98;5.35;;;;;;;28.91;39.97;100608.78;5078352;28;20032;-44
2022/07/19 05:24:04;;;;;;;6.45;5.07;;;;;;;29.06;39.60;100638.53;5071263;28;20028;-50
2022/07/19 05:26:33;;;;;;;7.30;5.88;;;;;;;28.99;39.94;100658.84;5071100;28;20047;-44
2022/07/19 05:29:03;;;;;;;8.57;5.43;;;;;;;28.98;39.53;100641.28;5070143;28;20034;-50
2022/07/19 05:31:31;;;;;;;5.95;5.32;;;;;;;28.98;39.83;100595.50;5072584;28;20024;-44
2022/07/19 07:01:56;;;;;;;18.93;6.87;;;;;;;26.50;49.72;100919.31;5015574;27;3825142;-47
2022/07/19 07:04:25;;;;;;;18.85;6.47;;;;;;;26.84;48.95;100932.53;5130770;28;20123;-45
2022/07/19 07:06:53;;;;;;;23.15;7.70;;;;;;;27.00;48.41;100930.75;5113375;28;20038;-46
2022/07/19 07:09:22;;;;;;;19.90;7.03;;;;;;;26.97;48.42;100933.44;5112950;28;20062;-46
2022/07/19 07:11:50;;;;;;;24.02;8.02;;;;;;;26.87;48.78;100934.28;5130896;28;20462;-52
2022/07/19 07:14:18;;;;;;;20.63;8.75;;;;;;;27.22;47.78;100934.25;5130867;28;20110;-50
2022/07/19 07:16:46;;;;;;;22.02;7.72;;;;;;;27.23;47.57;100914.06;5131191;28;20427;-47
2022/07/19 07:19:15;;;;;;;27.25;8.75;;;;;;;27.32;47.48;100905.28;5131162;28;20034;-52
2022/07/19 07:21:44;;;;;;;23.48;8.25;;;;;;;27.36;46.78;100873.66;5131095;28;20110;-44
2022/07/19 07:24:12;;;;;;;20.50;7.93;;;;;;;27.38;47.08;100879.81;5130744;28;20020;-48
2022/07/19 07:26:41;;;;;;;24.48;8.75;;;;;;;27.30;47.22;100871.06;5095792;28;20073;-46
2022/07/19 07:29:09;;;;;;;24.17;8.82;;;;;;;27.20;47.29;100858.78;5130956;28;20059;-44
2022/07/19 07:31:38;;;;;;;22.58;8.52;;;;;;;26.77;48.36;100847.41;5112497;28;20024;-48
2022/07/19 07:34:06;;;;;;;24.20;8.57;;;;;;;26.83;48.23;100839.53;5130842;28;20023;-48
2022/07/19 07:36:35;;;;;;;27.17;10.88;;;;;;;26.86;48.25;100835.13;5130725;28;20466;-49
2022/07/19 07:39:03;;;;;;;29.35;10.13;;;;;;;26.68;48.80;100827.25;5130650;28;20088;-44
2022/07/19 07:41:32;;;;;;;27.75;10.40;;;;;;;26.77;48.70;100826.34;5112120;28;20416;-50
2022/07/19 07:44:00;;;;;;;30.10;10.98;;;;;;;26.52;49.27;100836.88;5130596;28;20076;-47
2022/07/19 07:46:29;;;;;;;24.13;9.75;;;;;;;26.41;49.77;100841.28;5112196;28;20358;-50
2022/07/19 07:48:57;;;;;;;26.58;10.00;;;;;;;26.02;50.23;100835.91;5130438;28;20466;-46
2022/07/19 07:51:26;;;;;;;33.35;10.80;;;;;;;26.05;50.47;100866.59;5130304;28;20035;-52
2022/07/19 07:53:55;;;;;;;24.73;9.45;;;;;;;25.96;51.01;100859.56;5130498;28;20109;-47
2022/07/19 07:56:24;;;;;;;22.13;9.57;;;;;;;26.30;49.94;100864.91;5112338;28;20392;-48
2022/07/19 07:58:52;;;;;;;22.33;9.45;;;;;;;26.30;49.77;100833.38;5130427;28;20033;-50
2022/07/19 08:01:21;;;;;;;18.17;8.55;;;;;;;26.66;49.25;100860.56;5124582;28;20059;-46
2022/07/19 08:03:49;;;;;;;27.52;9.88;;;;;;;26.64;49.21;100875.47;5116231;28;20061;-54
2022/07/19 08:06:18;;;;;;;25.73;9.57;;;;;;;26.72;48.96;100883.38;5098465;28;20032;-49
2022/07/19 08:08:47;;;;;;;25.08;8.85;;;;;;;26.77;48.62;100862.31;5116273;28;20032;-43
2022/07/19 08:11:15;;;;;;;23.83;9.43;;;;;;;26.49;49.64;100893.88;5116049;28;20440;-44
2022/07/19 08:13:44;;;;;;;25.48;10.45;;;;;;;26.61;49.36;100900.91;5115673;28;20100;-47
2022/07/19 08:16:12;;;;;;;22.75;9.35;;;;;;;26.41;49.84;100899.13;5115946;28;20031;-49
2022/07/19 08:25:24;;;;;;;17.98;8.05;;;;;;;26.46;49.70;100905.28;5115975;28;20074;-48
2022/07/19 08:27:51;;;;;;;23.00;9.73;;;;;;;26.64;49.32;100909.69;5098315;28;20056;-49
2022/07/19 08:30:20;;;;;;;23.42;9.18;;;;;;;26.42;50.14;100918.41;5116217;28;20051;-44
2022/07/19 08:32:48;;;;;;;26.58;9.38;;;;;;;26.42;49.78;100921.94;5115913;28;20020;-43
2022/07/19 08:35:17;;;;;;;23.38;8.88;;;;;;;26.45;49.44;100910.53;5115465;28;20114;-45
2022/07/19 08:37:45;;;;;;;24.40;10.02;;;;;;;26.33;49.99;100911.38;5115505;28;20541;-46
2022/07/19 08:40:15;;;;;;;20.27;9.63;;;;;;;26.46;49.43;100907.91;5097998;28;20046;-46
2022/07/19 08:42:43;;;;;;;20.10;8.60;;;;;;;26.31;49.98;100906.13;5115741;28;20393;-49
2022/07/19 08:45:12;;;;;;;20.55;8.82;;;;;;;26.38;49.78;100921.06;5115516;28;20057;-43
2022/07/19 08:47:42;;;;;;;21.65;8.75;;;;;;;26.16;50.21;100917.47;5115755;28;20028;-45
2022/07/19 08:50:11;;;;;;;20.92;8.77;;;;;;;26.09;50.18;100918.31;5115712;28;20031;-50
2022/07/19 08:52:40;;;;;;;17.50;8.23;;;;;;;26.39;49.56;100919.28;5115490;28;20403;-48
2022/07/19 08:55:09;;;;;;;21.23;7.90;;;;;;;26.54;48.97;100924.56;5097509;28;20051;-44
2022/07/19 08:57:57;;;;;;;20.20;8.00;;;;;;;26.92;48.61;100929.91;5115639;28;20036;-44
2022/07/19 09:00:27;;;;;;;20.30;7.72;;;;;;;26.77;48.68;100920.19;5114948;28;20055;-50
2022/07/19 09:03:01;;;;;;;18.88;8.35;;;;;;;26.75;48.83;100948.28;5115619;28;20462;-50
2022/07/19 09:05:30;;;;;;;18.48;7.53;;;;;;;26.48;49.18;100956.13;5115118;28;20046;-51
2022/07/19 09:08:06;;;;;;;17.45;7.78;;;;;;;26.27;49.94;100966.59;5115142;28;20036;-50
2022/07/19 09:10:36;;;;;;;18.75;8.23;;;;;;;26.00;50.33;100970.81;5115145;28;20031;-51
2022/07/19 09:13:16;;;;;;;20.73;7.63;;;;;;;26.07;50.25;100980.50;5095572;28;20024;-44
2022/07/19 09:15:49;;;;;;;26.08;8.20;;;;;;;26.29;49.63;100978.88;5115152;28;20049;-47
2022/07/19 09:18:20;;;;;;;19.63;7.70;;;;;;;26.16;49.89;100974.44;5115175;28;20028;-48
2022/07/19 09:20:52;;;;;;;18.27;7.75;;;;;;;26.35;49.35;100988.53;5114926;28;20043;-44
2022/07/19 09:23:21;;;;;;;19.13;7.22;;;;;;;26.51;49.00;100992.09;5097000;28;20028;-48
2022/07/19 09:25:56;;;;;;;17.38;7.53;;;;;;;26.68;48.77;100993.00;5114581;28;20371;-48
2022/07/19 09:28:26;;;;;;;17.20;7.10;;;;;;;27.01;48.02;100989.56;5114697;28;20024;-47
2022/07/19 09:30:56;;;;;;;20.45;8.55;;;;;;;27.08;47.90;100983.41;5114401;28;20110;-48
2022/07/19 09:33:26;;;;;;;23.65;7.47;;;;;;;27.05;48.19;100991.34;5115008;28;20106;-52
2022/07/19 09:35:57;;;;;;;16.98;6.90;;;;;;;26.95;48.36;100983.41;5114862;28;20027;-44
2022/07/19 09:38:35;;;;;;;19.92;6.88;;;;;;;26.83;48.75;100989.53;5114775;28;20028;-52
2022/07/19 09:41:16;;;;;;;20.75;7.63;;;;;;;26.89;48.28;100983.41;5114848;28;20036;-45
2022/07/19 09:43:56;;;;;;;20.10;6.90;;;;;;;27.02;48.22;100989.56;5114484;28;20027;-51
2022/07/19 09:46:34;;;;;;;26.77;8.23;;;;;;;27.05;48.24;100996.59;5114785;28;20066;-49
2022/07/19 09:49:07;;;;;;;22.05;7.03;;;;;;;27.07;48.04;100993.09;5114722;28;20113;-49
2022/07/19 09:51:37;;;;;;;18.60;7.25;;;;;;;27.12;48.26;101007.13;5114722;28;20031;-49
2022/07/19 09:54:06;;;;;;;19.85;8.00;;;;;;;27.09;48.62;101006.25;5096493;28;20089;-44
2022/07/19 09:56:39;;;;;;;20.70;7.00;;;;;;;27.27;47.98;101014.16;5114725;28;20430;-49
2022/07/19 09:59:08;;;;;;;20.27;7.25;;;;;;;27.23;48.11;101014.16;5096681;28;20026;-44
2022/07/19 10:01:36;;;;;;;26.00;8.15;;;;;;;27.32;47.62;101021.19;5095826;28;20079;-48
2022/07/19 10:04:09;;;;;;;15.98;6.50;;;;;;;27.28;47.87;101034.34;5114524;28;20035;-45
2022/07/19 10:06:38;;;;;;;17.15;7.22;;;;;;;27.28;47.64;101033.47;5096019;28;20036;-50
2022/07/19 10:09:08;;;;;;;19.65;6.95;;;;;;;27.20;48.09;101037.84;5114892;28;20048;-44
2022/07/19 10:11:37;;;;;;;24.50;7.88;;;;;;;27.07;48.00;101042.22;5114207;28;20024;-47
2022/07/19 10:14:06;;;;;;;16.83;6.32;;;;;;;27.11;47.93;101050.16;5113965;28;20039;-44
2022/07/19 10:16:50;;;;;;;18.70;6.45;;;;;;;26.99;47.78;101058.00;5114194;28;20025;-45
2022/07/19 10:19:40;;;;;;;18.03;6.77;;;;;;;26.89;47.99;101064.13;5114124;28;20104;-49
2022/07/19 10:22:12;;;;;;;21.23;6.93;;;;;;;26.93;47.74;101065.91;5114235;28;20061;-49
2022/07/19 10:24:46;;;;;;;15.88;5.57;;;;;;;26.93;46.81;101068.53;5095677;28;20430;-52
2022/07/19 10:27:17;;;;;;;13.30;5.15;;;;;;;26.70;46.46;101066.69;5114345;28;20560;-45
2022/07/19 10:29:46;;;;;;;14.95;4.65;;;;;;;26.39;45.73;101041.13;5113687;28;20122;-49
2022/07/19 10:32:15;;;;;;;11.75;4.05;;;;;;;26.58;45.65;101072.78;5113310;28;20028;-47
2022/07/19 10:34:51;;;;;;;13.23;3.75;;;;;;;26.66;45.49;101080.69;5113635;28;20050;-43
2022/07/19 10:37:42;;;;;;;12.18;4.25;;;;;;;26.48;45.44;101082.38;5113726;28;20110;-50
2022/07/19 10:40:11;;;;;;;12.15;3.60;;;;;;;26.54;45.80;101076.28;5114116;28;20469;-49
2022/07/19 10:43:08;;;;;;;9.23;3.83;;;;;;;26.78;45.37;101075.50;5113904;28;20026;-48
2022/07/19 10:45:37;;;;;;;10.15;3.42;;;;;;;26.97;45.07;101084.34;5113570;28;20158;-48
2022/07/19 10:48:08;;;;;;;13.65;4.18;;;;;;;26.93;45.24;101085.19;5113581;28;20023;-45
2022/07/19 10:50:57;;;;;;;13.05;3.90;;;;;;;26.80;45.64;101080.78;5113599;28;20027;-48
2022/07/19 10:53:44;;;;;;;9.93;3.30;;;;;;;26.65;45.99;101093.00;5096329;28;20485;-51
2022/07/19 10:56:17;;;;;;;11.55;3.92;;;;;;;26.24;46.30;101072.63;5113563;28;20388;-50
2022/07/19 10:59:07;;;;;;;10.48;3.78;;;;;;;26.45;46.70;101098.19;5113365;28;20477;-45
2022/07/19 11:01:37;;;;;;;14.23;3.80;;;;;;;26.39;46.79;101106.91;5113318;28;20506;-50
2022/07/19 11:04:28;;;;;;;16.88;3.70;;;;;;;26.54;46.42;101115.75;5113688;28;20042;-47
2022/07/19 11:07:24;;;;;;;16.05;4.03;;;;;;;26.78;46.10;101114.97;5106966;28;20036;-46
2022/07/19 11:09:55;;;;;;;10.40;3.97;;;;;;;26.89;45.85;101115.00;5113964;28;20066;-45
2022/07/19 11:12:44;;;;;;;14.88;4.45;;;;;;;26.81;46.45;101129.91;5095389;28;20034;-44
2022/07/19 11:15:13;;;;;;;14.00;4.35;;;;;;;26.09;47.70;101131.25;5113470;28;20602;-49
2022/07/19 11:17:51;;;;;;;18.45;4.50;;;;;;;25.81;48.00;101117.91;5113348;28;20041;-47
2022/07/19 11:20:20;;;;;;;13.00;3.95;;;;;;;26.21;47.61;101141.00;5113650;28;20023;-47
2022/07/19 11:22:49;;;;;;;14.65;4.10;;;;;;;26.43;47.27;101154.25;5095334;28;20023;-51
2022/07/19 11:25:24;;;;;;;11.40;4.07;;;;;;;26.33;47.08;101154.22;5113406;28;20028;-45
2022/07/19 11:27:53;;;;;;;13.50;4.32;;;;;;;26.15;47.69;101147.06;5113756;28;20027;-49
2022/07/19 11:30:23;;;;;;;14.35;4.28;;;;;;;26.04;48.14;101162.78;5112822;28;20027;-48
2022/07/19 11:32:56;;;;;;;12.85;4.05;;;;;;;26.22;47.61;101156.78;5112998;28;20418;-45
2022/07/19 11:35:25;;;;;;;14.98;4.15;;;;;;;26.16;47.27;101162.00;5112742;28;20079;-47
2022/07/19 11:37:54;;;;;;;14.93;4.22;;;;;;;26.42;46.82;101163.03;5116073;28;20118;-46
2022/07/19 11:40:24;;;;;;;11.05;3.97;;;;;;;26.55;46.61;101167.50;5116468;28;20485;-46
2022/07/19 11:42:53;;;;;;;11.90;3.63;;;;;;;26.34;46.62;101157.72;5116914;28;20043;-53
2022/07/19 11:45:23;;;;;;;13.48;3.55;;;;;;;26.63;46.11;101157.88;5116938;28;20022;-46
2022/07/19 11:47:54;;;;;;;13.30;4.07;;;;;;;26.58;45.94;101158.75;5116863;28;20027;-45
2022/07/19 11:50:25;;;;;;;14.15;4.22;;;;;;;26.68;45.66;101153.53;5117148;28;20119;-48
2022/07/19 11:52:56;;;;;;;17.23;3.28;;;;;;;26.85;45.10;101163.28;5116388;28;20085;-49
2022/07/19 11:55:27;;;;;;;12.77;3.70;;;;;;;27.05;44.88;101155.44;5116867;28;20026;-47
2022/07/19 11:57:56;;;;;;;9.68;3.05;;;;;;;26.96;44.88;101158.94;5098348;28;20339;-51
2022/07/19 12:00:25;;;;;;;14.43;3.92;;;;;;;26.92;45.01;101164.19;5098466;28;20051;-50
2022/07/19 12:02:56;;;;;;;15.80;3.92;;;;;;;26.77;45.46;101163.22;5116119;28;20031;-51
2022/07/19 12:05:25;;;;;;;11.30;3.47;;;;;;;26.79;45.68;101165.84;5116150;28;20477;-48
2022/07/19 12:07:56;;;;;;;11.07;2.97;;;;;;;26.94;45.25;101167.72;5116715;28;20409;-50
2022/07/19 12:10:43;;;;;;;14.32;3.38;;;;;;;26.79;45.40;101163.22;5115907;28;20024;-53
2022/07/19 12:13:15;;;;;;;13.98;3.33;;;;;;;26.73;45.35;101161.44;5108017;28;20043;-45
2022/07/19 12:15:50;;;;;;;11.23;3.17;;;;;;;26.88;45.10;101160.66;5116185;28;20104;-49
2022/07/19 12:18:22;;;;;;;10.65;3.20;;;;;;;27.06;44.96;101165.09;5116455;28;20024;-45
2022/07/19 12:21:28;;;;;;;12.70;3.10;;;;;;;26.95;44.90;101166.84;5097956;28;20050;-53
2022/07/19 12:24:17;;;;;;;13.32;3.05;;;;;;;26.97;44.91;101170.34;5094558;28;20036;-54
2022/07/19 12:26:57;;;;;;;13.07;3.72;;;;;;;26.89;44.90;101166.81;5115963;28;20081;-50
2022/07/19 12:29:29;;;;;;;8.48;2.60;;;;;;;27.04;44.50;101164.22;5116033;28;20023;-53
2022/07/19 12:32:03;;;;;;;11.07;3.47;;;;;;;26.84;44.49;101177.31;5115670;28;20027;-50
2022/07/19 12:34:43;;;;;;;14.05;3.13;;;;;;;26.89;44.72;101174.69;5115702;28;20023;-50
2022/07/19 12:37:24;;;;;;;12.65;2.80;;;;;;;26.88;44.32;101183.47;5115712;28;20028;-47
2022/07/19 12:40:10;;;;;;;14.65;3.92;;;;;;;26.81;44.09;101172.91;5115704;28;20038;-52
2022/07/19 12:42:40;;;;;;;13.07;3.08;;;;;;;27.00;43.66;101170.34;5115674;28;20420;-44
2022/07/19 12:45:11;;;;;;;11.23;2.78;;;;;;;26.92;43.24;101183.47;5115854;28;20027;-49
2022/07/19 12:47:39;;;;;;;12.77;2.97;;;;;;;27.09;43.08;101170.38;5115301;28;20031;-49
2022/07/19 12:50:09;;;;;;;12.00;2.88;;;;;;;27.08;43.10;101173.00;5116283;28;20027;-49
2022/07/19 12:52:38;;;;;;;13.63;2.75;;;;;;;27.03;43.28;101177.41;5097540;28;20062;-48
2022/07/19 12:55:07;;;;;;;9.13;2.78;;;;;;;26.93;43.60;101165.94;5115251;28;20089;-48
2022/07/19 12:57:35;;;;;;;14.25;3.28;;;;;;;27.08;43.46;101173.00;5115104;28;20028;-47
2022/07/19 13:00:05;;;;;;;10.38;3.13;;;;;;;27.22;43.52;101171.28;5115076;28;20067;-49
2022/07/19 13:02:33;;;;;;;16.02;2.85;;;;;;;27.05;43.71;101171.25;5114580;28;20031;-44
2022/07/19 13:05:02;;;;;;;12.38;3.30;;;;;;;27.15;43.69;101167.75;5114844;28;20030;-50
2022/07/19 13:07:30;;;;;;;14.65;3.35;;;;;;;27.25;43.32;101162.53;5115485;28;20031;-52
2022/07/19 13:10:00;;;;;;;9.98;2.67;;;;;;;27.34;43.29;101178.34;5114991;28;20020;-46